Jackson Summit, Pennsylvania
Current Conditions -  °F | °C
As of 8:12 AM on Tuesday 21 Oct 2014 (Local Time) from KELM Reporting Station
Light Rain Light Rain  
Wind Chill: 47°   Ceiling: 3600
Heat Index: 47°   Visibility: 5mi
Dew Point: 46°   Wind: 0mph
Humidity: 97%   Direction: NA
Pressure: 29.83"   Gusts: NA
Location:  41.9565°N, 76.9857°W
Report Text: KELM 211212Z 00000KT 5SM -RA BR FEW027 OVC036 08/08 A2983 RMK AO2 P0000 T00830078
Loading
Personal Weather Stations






























Interactive Weather Map
Tropical Storm Tracking
New forecast layout! Learn more

10-Day Weather Forecast

Advertisements
Track Severe Weather on mobile